Back to Top

Language: 

My Weather Underground Personal Weather Station Historical Data with Graphs...

Delerius Weather Station Historical Data
Daily Summary for November 4, 2017 Units:  Both    English   Metric
« Previous Day
Next Day »
Daily Weekly Monthly Yearly Custom
  High: Low: Average:
Temperature: 53.2 °F /  11.8 °C 41.2 °F /  5.1 °C 48.1 °F /  8.9 °C
Dew Point: 48.7 °F /  9.3 °C 37.0 °F /  2.8 °C 44.5 °F /  6.9 °C
Humidity: 96 % 68 % 87 %
Wind Speed: 13.0 mph /  20.9 km/h - 4.9 mph /  7.9 km/h
Wind Gust: 23.0 mph /  37 km/h - -
Wind:- - West
Pressure: 29.71 in /  1006 hPa 29.58 in /  1001.6 hPa -
Precipitation: 0.07 in /  1.78 mm    
Historical Graphs
 
 
Tabular Data for November 4, 2017
Time Temperature Dew Point Pressure Wind Wind Speed Wind Gust Humidity Rainfall Rate (Hourly) solar Conditions
00:04 51.1 °F /  10.6 °C 47.0 °F /  8.3 °C 29.71 in /  1006 hPa South 5.0 mph /  8 km/h 9.0 mph /  14.5 km/h 86 % 0.01 in /  0.25 mm 0 W/m2
00:09 50.9 °F /  10.5 °C 47.2 °F /  8.4 °C 29.71 in /  1006 hPa SSW 4.0 mph /  6.4 km/h 8.0 mph /  12.9 km/h 87 % 0.01 in /  0.25 mm 0 W/m2
00:14 50.7 °F /  10.4 °C 47.3 °F /  8.5 °C 29.71 in /  1006 hPa South 6.0 mph /  9.7 km/h 8.0 mph /  12.9 km/h 88 % 0.01 in /  0.25 mm 0 W/m2
00:19 50.7 °F /  10.4 °C 47.3 °F /  8.5 °C 29.71 in /  1006 hPa SSE 4.0 mph /  6.4 km/h 7.0 mph /  11.3 km/h 88 % 0.01 in /  0.25 mm 0 W/m2
00:24 50.7 °F /  10.4 °C 47.3 °F /  8.5 °C 29.70 in /  1005.6 hPa SE 2.0 mph /  3.2 km/h 7.0 mph /  11.3 km/h 88 % 0.01 in /  0.25 mm 0 W/m2
00:29 50.5 °F /  10.3 °C 47.4 °F /  8.6 °C 29.70 in /  1005.6 hPa SSE 3.0 mph /  4.8 km/h 9.0 mph /  14.5 km/h 89 % 0.01 in /  0.25 mm 0 W/m2
00:34 50.5 °F /  10.3 °C 47.4 °F /  8.6 °C 29.69 in /  1005.3 hPa SSW 2.0 mph /  3.2 km/h 6.0 mph /  9.7 km/h 89 % 0.02 in /  0.51 mm 0 W/m2
00:39 50.5 °F /  10.3 °C 47.4 °F /  8.6 °C 29.69 in /  1005.3 hPa SSW 5.0 mph /  8 km/h 8.0 mph /  12.9 km/h 89 % 0.02 in /  0.51 mm 0 W/m2
00:44 50.4 °F /  10.2 °C 47.5 °F /  8.6 °C 29.69 in /  1005.3 hPa South 5.0 mph /  8 km/h 8.0 mph /  12.9 km/h 90 % 0.02 in /  0.51 mm 0 W/m2
00:49 50.4 °F /  10.2 °C 47.5 °F /  8.6 °C 29.69 in /  1005.3 hPa SSW 6.0 mph /  9.7 km/h 10.0 mph /  16.1 km/h 90 % 0.02 in /  0.51 mm 0 W/m2
00:54 50.4 °F /  10.2 °C 47.5 °F /  8.6 °C 29.68 in /  1005 hPa South 6.0 mph /  9.7 km/h 8.0 mph /  12.9 km/h 90 % 0.01 in /  0.25 mm 0 W/m2
01:04 50.4 °F /  10.2 °C 47.8 °F /  8.8 °C 29.68 in /  1005 hPa SW 5.0 mph /  8 km/h 9.0 mph /  14.5 km/h 91 % 0.01 in /  0.25 mm 0 W/m2
01:09 50.2 °F /  10.1 °C 47.7 °F /  8.7 °C 29.68 in /  1005 hPa SSW 5.0 mph /  8 km/h 8.0 mph /  12.9 km/h 91 % 0.01 in /  0.25 mm 0 W/m2
01:14 50.2 °F /  10.1 °C 47.7 °F /  8.7 °C 29.68 in /  1005 hPa SW 6.0 mph /  9.7 km/h 10.0 mph /  16.1 km/h 91 % 0.02 in /  0.51 mm 0 W/m2
01:19 50.2 °F /  10.1 °C 47.7 °F /  8.7 °C 29.67 in /  1004.6 hPa SSW 3.0 mph /  4.8 km/h 6.0 mph /  9.7 km/h 91 % 0.02 in /  0.51 mm 0 W/m2
01:24 50.0 °F /  10 °C 47.5 °F /  8.6 °C 29.67 in /  1004.6 hPa SSE 4.0 mph /  6.4 km/h 8.0 mph /  12.9 km/h 91 % 0.02 in /  0.51 mm 0 W/m2
01:29 50.0 °F /  10 °C 47.5 °F /  8.6 °C 29.67 in /  1004.6 hPa South 3.0 mph /  4.8 km/h 6.0 mph /  9.7 km/h 91 % 0.02 in /  0.51 mm 0 W/m2
01:34 49.8 °F /  9.9 °C 47.6 °F /  8.7 °C 29.67 in /  1004.6 hPa SSE 5.0 mph /  8 km/h 8.0 mph /  12.9 km/h 92 % 0.02 in /  0.51 mm 0 W/m2
01:39 49.8 °F /  9.9 °C 47.6 °F /  8.7 °C 29.66 in /  1004.3 hPa South 3.0 mph /  4.8 km/h 6.0 mph /  9.7 km/h 92 % 0.02 in /  0.51 mm 0 W/m2
01:44 49.8 °F /  9.9 °C 47.6 °F /  8.7 °C 29.66 in /  1004.3 hPa South 4.0 mph /  6.4 km/h 8.0 mph /  12.9 km/h 92 % 0.02 in /  0.51 mm 0 W/m2
01:49 49.6 °F /  9.8 °C 47.4 °F /  8.6 °C 29.66 in /  1004.3 hPa South 6.0 mph /  9.7 km/h 10.0 mph /  16.1 km/h 92 % 0.02 in /  0.51 mm 0 W/m2
01:54 49.6 °F /  9.8 °C 47.4 °F /  8.6 °C 29.65 in /  1003.9 hPa SSW 4.0 mph /  6.4 km/h 8.0 mph /  12.9 km/h 92 % 0.03 in /  0.76 mm 0 W/m2
01:59 49.6 °F /  9.8 °C 47.4 °F /  8.6 °C 29.65 in /  1003.9 hPa South 4.0 mph /  6.4 km/h 8.0 mph /  12.9 km/h 92 % 0.03 in /  0.76 mm 0 W/m2
02:04 49.6 °F /  9.8 °C 47.4 °F /  8.6 °C 29.65 in /  1003.9 hPa South 2.0 mph /  3.2 km/h 7.0 mph /  11.3 km/h 92 % 0.04 in /  1.02 mm 0 W/m2
02:09 49.6 °F /  9.8 °C 47.4 °F /  8.6 °C 29.65 in /  1003.9 hPa SSE 2.0 mph /  3.2 km/h 6.0 mph /  9.7 km/h 92 % 0.04 in /  1.02 mm 0 W/m2
02:14 49.6 °F /  9.8 °C 47.7 °F /  8.7 °C 29.64 in /  1003.6 hPa SSE 4.0 mph /  6.4 km/h 9.0 mph /  14.5 km/h 93 % 0.03 in /  0.76 mm 0 W/m2
02:19 49.6 °F /  9.8 °C 47.7 °F /  8.7 °C 29.64 in /  1003.6 hPa South 4.0 mph /  6.4 km/h 7.0 mph /  11.3 km/h 93 % 0.03 in /  0.76 mm 0 W/m2
02:24 49.5 °F /  9.7 °C 47.5 °F /  8.6 °C 29.64 in /  1003.6 hPa South 3.0 mph /  4.8 km/h 7.0 mph /  11.3 km/h 93 % 0.03 in /  0.76 mm 0 W/m2
02:29 49.5 °F /  9.7 °C 47.5 °F /  8.6 °C 29.63 in /  1003.3 hPa South 3.0 mph /  4.8 km/h 7.0 mph /  11.3 km/h 93 % 0.02 in /  0.51 mm 0 W/m2
02:34 49.5 °F /  9.7 °C 47.5 °F /  8.6 °C 29.63 in /  1003.3 hPa South 4.0 mph /  6.4 km/h 7.0 mph /  11.3 km/h 93 % 0.02 in /  0.51 mm 0 W/m2
02:39 49.5 °F /  9.7 °C 47.5 °F /  8.6 °C 29.63 in /  1003.3 hPa South 5.0 mph /  8 km/h 10.0 mph /  16.1 km/h 93 % 0.02 in /  0.51 mm 0 W/m2
02:45 49.5 °F /  9.7 °C 47.5 °F /  8.6 °C 29.62 in /  1002.9 hPa SSE 4.0 mph /  6.4 km/h 7.0 mph /  11.3 km/h 93 % 0.02 in /  0.51 mm 0 W/m2
02:50 49.6 °F /  9.8 °C 48.0 °F /  8.9 °C 29.62 in /  1002.9 hPa SSE 6.0 mph /  9.7 km/h 9.0 mph /  14.5 km/h 94 % 0.02 in /  0.51 mm 0 W/m2
02:55 49.6 °F /  9.8 °C 48.0 °F /  8.9 °C 29.62 in /  1002.9 hPa South 2.0 mph /  3.2 km/h 6.0 mph /  9.7 km/h 94 % 0.01 in /  0.25 mm 0 W/m2
03:00 49.6 °F /  9.8 °C 48.0 °F /  8.9 °C 29.62 in /  1002.9 hPa South 2.0 mph /  3.2 km/h 8.0 mph /  12.9 km/h 94 % 0.01 in /  0.25 mm 0 W/m2
03:05 49.6 °F /  9.8 °C 48.0 °F /  8.9 °C 29.62 in /  1002.9 hPa Calm     94 % 0.00 in /  0 mm 0 W/m2
03:10 49.6 °F /  9.8 °C 48.0 °F /  8.9 °C 29.61 in /  1002.6 hPa SSE 3.0 mph /  4.8 km/h 6.0 mph /  9.7 km/h 94 % 0.00 in /  0 mm 0 W/m2
03:16 49.6 °F /  9.8 °C 48.0 °F /  8.9 °C 29.61 in /  1002.6 hPa SE 3.0 mph /  4.8 km/h 5.0 mph /  8 km/h 94 % 0.00 in /  0 mm 0 W/m2
03:20 49.6 °F /  9.8 °C 48.0 °F /  8.9 °C 29.61 in /  1002.6 hPa SE 4.0 mph /  6.4 km/h 6.0 mph /  9.7 km/h 94 % 0.00 in /  0 mm 0 W/m2
03:23 49.6 °F /  9.8 °C 48.0 °F /  8.9 °C 29.60 in /  1002.3 hPa SE 4.0 mph /  6.4 km/h 6.0 mph /  9.7 km/h 94 % 0.00 in /  0 mm 0 W/m2
03:27 49.6 °F /  9.8 °C 48.0 °F /  8.9 °C 29.61 in /  1002.6 hPa SSE 3.0 mph /  4.8 km/h 6.0 mph /  9.7 km/h 94 % 0.00 in /  0 mm 0 W/m2
03:29 49.6 °F /  9.8 °C 48.0 °F /  8.9 °C 29.60 in /  1002.3 hPa SE 3.0 mph /  4.8 km/h 7.0 mph /  11.3 km/h 94 % 0.00 in /  0 mm 0 W/m2
03:30 49.6 °F /  9.8 °C 48.0 °F /  8.9 °C 29.60 in /  1002.3 hPa SE 4.0 mph /  6.4 km/h 7.0 mph /  11.3 km/h 94 % 0.00 in /  0 mm 0 W/m2
03:35 49.6 °F /  9.8 °C 48.0 °F /  8.9 °C 29.60 in /  1002.3 hPa SE 3.0 mph /  4.8 km/h 6.0 mph /  9.7 km/h 94 % 0.00 in /  0 mm 0 W/m2
03:40 49.6 °F /  9.8 °C 48.0 °F /  8.9 °C 29.60 in /  1002.3 hPa SSE 2.0 mph /  3.2 km/h 5.0 mph /  8 km/h 94 % 0.00 in /  0 mm 0 W/m2
03:45 49.6 °F /  9.8 °C 48.0 °F /  8.9 °C 29.60 in /  1002.3 hPa SSE 2.0 mph /  3.2 km/h 6.0 mph /  9.7 km/h 94 % 0.00 in /  0 mm 0 W/m2
03:50 49.6 °F /  9.8 °C 48.0 °F /  8.9 °C 29.60 in /  1002.3 hPa SSW 5.0 mph /  8 km/h 11.0 mph /  17.7 km/h 94 % 0.00 in /  0 mm 0 W/m2
03:55 49.6 °F /  9.8 °C 48.0 °F /  8.9 °C 29.59 in /  1001.9 hPa SSE 2.0 mph /  3.2 km/h 5.0 mph /  8 km/h 94 % 0.00 in /  0 mm 0 W/m2
04:00 49.6 °F /  9.8 °C 48.0 °F /  8.9 °C 29.59 in /  1001.9 hPa South 4.0 mph /  6.4 km/h 8.0 mph /  12.9 km/h 94 % 0.00 in /  0 mm 0 W/m2
04:05 49.8 °F /  9.9 °C 48.2 °F /  9 °C 29.59 in /  1001.9 hPa SSE 5.0 mph /  8 km/h 9.0 mph /  14.5 km/h 94 % 0.00 in /  0 mm 0 W/m2
04:10 49.8 °F /  9.9 °C 48.2 °F /  9 °C 29.59 in /  1001.9 hPa SSW 6.0 mph /  9.7 km/h 9.0 mph /  14.5 km/h 94 % 0.00 in /  0 mm 0 W/m2
04:15 50.2 °F /  10.1 °C 48.2 °F /  9 °C 29.59 in /  1001.9 hPa SW 3.0 mph /  4.8 km/h 6.0 mph /  9.7 km/h 93 % 0.00 in /  0 mm 0 W/m2
04:20 50.2 °F /  10.1 °C 48.2 °F /  9 °C 29.59 in /  1001.9 hPa SSW 3.0 mph /  4.8 km/h 10.0 mph /  16.1 km/h 93 % 0.00 in /  0 mm 0 W/m2
04:25 50.2 °F /  10.1 °C 48.2 °F /  9 °C 29.59 in /  1001.9 hPa WNW 1.0 mph /  1.6 km/h 3.0 mph /  4.8 km/h 93 % 0.00 in /  0 mm 0 W/m2
04:30 50.2 °F /  10.1 °C 48.2 °F /  9 °C 29.59 in /  1001.9 hPa SSE 3.0 mph /  4.8 km/h 6.0 mph /  9.7 km/h 93 % 0.00 in /  0 mm 0 W/m2
04:35 50.2 °F /  10.1 °C 48.2 °F /  9 °C 29.58 in /  1001.6 hPa SW 4.0 mph /  6.4 km/h 6.0 mph /  9.7 km/h 93 % 0.00 in /  0 mm 0 W/m2
04:37 50.2 °F /  10.1 °C 48.2 °F /  9 °C 29.58 in /  1001.6 hPa WSW 2.0 mph /  3.2 km/h 6.0 mph /  9.7 km/h 93 % 0.00 in /  0 mm 0 W/m2
04:42 50.2 °F /  10.1 °C 48.2 °F /  9 °C 29.59 in /  1001.9 hPa SSW 3.0 mph /  4.8 km/h 5.0 mph /  8 km/h 93 % 0.00 in /  0 mm 0 W/m2
04:47 50.2 °F /  10.1 °C 48.2 °F /  9 °C 29.58 in /  1001.6 hPa SSW 4.0 mph /  6.4 km/h 7.0 mph /  11.3 km/h 93 % 0.00 in /  0 mm 0 W/m2
04:52 50.0 °F /  10 °C 48.1 °F /  8.9 °C 29.58 in /  1001.6 hPa SSW 4.0 mph /  6.4 km/h 7.0 mph /  11.3 km/h 93 % 0.00 in /  0 mm 0 W/m2
04:57 50.0 °F /  10 °C 48.1 °F /  8.9 °C 29.58 in /  1001.6 hPa South 5.0 mph /  8 km/h 9.0 mph /  14.5 km/h 93 % 0.00 in /  0 mm 0 W/m2
05:02 50.0 °F /  10 °C 48.1 °F /  8.9 °C 29.58 in /  1001.6 hPa SSW 1.0 mph /  1.6 km/h 6.0 mph /  9.7 km/h 93 % 0.00 in /  0 mm 0 W/m2
05:07 50.0 °F /  10 °C 48.3 °F /  9.1 °C 29.58 in /  1001.6 hPa Calm     94 % 0.01 in /  0.25 mm 0 W/m2
05:12 50.0 °F /  10 °C 48.3 °F /  9.1 °C 29.58 in /  1001.6 hPa Calm   1.0 mph /  1.6 km/h 94 % 0.01 in /  0.25 mm 0 W/m2
05:17 50.0 °F /  10 °C 48.3 °F /  9.1 °C 29.58 in /  1001.6 hPa Calm     94 % 0.01 in /  0.25 mm 0 W/m2
05:22 50.0 °F /  10 °C 48.3 °F /  9.1 °C 29.58 in /  1001.6 hPa Calm     94 % 0.01 in /  0.25 mm 0 W/m2
05:27 49.8 °F /  9.9 °C 48.2 °F /  9 °C 29.58 in /  1001.6 hPa Calm     94 % 0.01 in /  0.25 mm 0 W/m2
05:32 49.8 °F /  9.9 °C 48.2 °F /  9 °C 29.58 in /  1001.6 hPa SSW 1.0 mph /  1.6 km/h 2.0 mph /  3.2 km/h 94 % 0.01 in /  0.25 mm 0 W/m2
05:37 49.8 °F /  9.9 °C 48.2 °F /  9 °C 29.58 in /  1001.6 hPa Calm     94 % 0.01 in /  0.25 mm 0 W/m2
05:42 49.8 °F /  9.9 °C 48.2 °F /  9 °C 29.58 in /  1001.6 hPa Calm     94 % 0.02 in /  0.51 mm 0 W/m2
05:47 49.8 °F /  9.9 °C 48.2 °F /  9 °C 29.58 in /  1001.6 hPa Calm     94 % 0.02 in /  0.51 mm 0 W/m2
05:52 49.8 °F /  9.9 °C 48.4 °F /  9.1 °C 29.58 in /  1001.6 hPa Calm     95 % 0.02 in /  0.51 mm 0 W/m2
05:57 49.8 °F /  9.9 °C 48.4 °F /  9.1 °C 29.58 in /  1001.6 hPa Calm     95 % 0.02 in /  0.51 mm 0 W/m2
06:02 49.8 °F /  9.9 °C 48.4 °F /  9.1 °C 29.58 in /  1001.6 hPa Calm     95 % 0.02 in /  0.51 mm 0 W/m2
06:07 49.8 °F /  9.9 °C 48.4 °F /  9.1 °C 29.58 in /  1001.6 hPa Calm     95 % 0.01 in /  0.25 mm 0 W/m2
06:12 49.8 °F /  9.9 °C 48.4 °F /  9.1 °C 29.58 in /  1001.6 hPa Calm     95 % 0.01 in /  0.25 mm 0 W/m2
06:17 49.8 °F /  9.9 °C 48.4 °F /  9.1 °C 29.58 in /  1001.6 hPa Calm     95 % 0.01 in /  0.25 mm 0 W/m2
06:22 49.8 °F /  9.9 °C 48.4 °F /  9.1 °C 29.58 in /  1001.6 hPa SW 1.0 mph /  1.6 km/h 3.0 mph /  4.8 km/h 95 % 0.01 in /  0.25 mm 0 W/m2
06:27 49.8 °F /  9.9 °C 48.4 °F /  9.1 °C 29.58 in /  1001.6 hPa Calm     95 % 0.01 in /  0.25 mm 0 W/m2
06:32 49.8 °F /  9.9 °C 48.4 °F /  9.1 °C 29.58 in /  1001.6 hPa WSW 1.0 mph /  1.6 km/h 4.0 mph /  6.4 km/h 95 % 0.01 in /  0.25 mm 0 W/m2
06:37 49.8 °F /  9.9 °C 48.4 °F /  9.1 °C 29.58 in /  1001.6 hPa Calm   2.0 mph /  3.2 km/h 95 % 0.01 in /  0.25 mm 0 W/m2
06:42 49.8 °F /  9.9 °C 48.4 °F /  9.1 °C 29.58 in /  1001.6 hPa Calm   2.0 mph /  3.2 km/h 95 % 0.00 in /  0 mm 0 W/m2
06:47 49.8 °F /  9.9 °C 48.4 °F /  9.1 °C 29.58 in /  1001.6 hPa Calm   1.0 mph /  1.6 km/h 95 % 0.00 in /  0 mm 0 W/m2
06:52 49.8 °F /  9.9 °C 48.4 °F /  9.1 °C 29.58 in /  1001.6 hPa WNW 1.0 mph /  1.6 km/h 4.0 mph /  6.4 km/h 95 % 0.00 in /  0 mm 0 W/m2
06:57 50.0 °F /  10 °C 48.6 °F /  9.2 °C 29.58 in /  1001.6 hPa Calm   1.0 mph /  1.6 km/h 95 % 0.00 in /  0 mm 0 W/m2
07:02 50.0 °F /  10 °C 48.6 °F /  9.2 °C 29.58 in /  1001.6 hPa NW 2.0 mph /  3.2 km/h 5.0 mph /  8 km/h 95 % 0.00 in /  0 mm 0 W/m2
07:07 50.0 °F /  10 °C 48.6 °F /  9.2 °C 29.58 in /  1001.6 hPa WNW 2.0 mph /  3.2 km/h 6.0 mph /  9.7 km/h 95 % 0.00 in /  0 mm 0 W/m2
07:12 50.0 °F /  10 °C 48.6 °F /  9.2 °C 29.58 in /  1001.6 hPa NW 2.0 mph /  3.2 km/h 5.0 mph /  8 km/h 95 % 0.00 in /  0 mm 0 W/m2
07:17 50.0 °F /  10 °C 48.6 °F /  9.2 °C 29.58 in /  1001.6 hPa Calm   2.0 mph /  3.2 km/h 95 % 0.00 in /  0 mm 0 W/m2
07:22 50.0 °F /  10 °C 48.6 °F /  9.2 °C 29.58 in /  1001.6 hPa Calm   2.0 mph /  3.2 km/h 95 % 0.00 in /  0 mm 0 W/m2
07:27 50.0 °F /  10 °C 48.6 °F /  9.2 °C 29.58 in /  1001.6 hPa Calm   2.0 mph /  3.2 km/h 95 % 0.00 in /  0 mm 0 W/m2
07:32 49.8 °F /  9.9 °C 48.4 °F /  9.1 °C 29.58 in /  1001.6 hPa Calm   1.0 mph /  1.6 km/h 95 % 0.00 in /  0 mm 0 W/m2
07:37 49.8 °F /  9.9 °C 48.4 °F /  9.1 °C 29.58 in /  1001.6 hPa Calm     95 % 0.00 in /  0 mm 0 W/m2
07:42 49.8 °F /  9.9 °C 48.4 °F /  9.1 °C 29.59 in /  1001.9 hPa NW 1.0 mph /  1.6 km/h 2.0 mph /  3.2 km/h 95 % 0.00 in /  0 mm 0 W/m2
07:47 49.8 °F /  9.9 °C 48.4 °F /  9.1 °C 29.59 in /  1001.9 hPa Calm   1.0 mph /  1.6 km/h 95 % 0.00 in /  0 mm 5 W/m2
07:52 49.8 °F /  9.9 °C 48.7 °F /  9.3 °C 29.59 in /  1001.9 hPa Calm     96 % 0.00 in /  0 mm 7 W/m2
07:57 49.8 °F /  9.9 °C 48.7 °F /  9.3 °C 29.58 in /  1001.6 hPa NW 1.0 mph /  1.6 km/h 4.0 mph /  6.4 km/h 96 % 0.00 in /  0 mm 11 W/m2
08:02 49.8 °F /  9.9 °C 48.7 °F /  9.3 °C 29.58 in /  1001.6 hPa Calm   1.0 mph /  1.6 km/h 96 % 0.00 in /  0 mm 12 W/m2
08:07 49.6 °F /  9.8 °C 48.5 °F /  9.2 °C 29.58 in /  1001.6 hPa Calm     96 % 0.00 in /  0 mm 16 W/m2
08:13 49.6 °F /  9.8 °C 48.5 °F /  9.2 °C 29.58 in /  1001.6 hPa Calm   1.0 mph /  1.6 km/h 96 % 0.00 in /  0 mm 18 W/m2
08:18 49.6 °F /  9.8 °C 48.5 °F /  9.2 °C 29.59 in /  1001.9 hPa Calm   2.0 mph /  3.2 km/h 96 % 0.00 in /  0 mm 23 W/m2
08:23 49.6 °F /  9.8 °C 48.3 °F /  9.1 °C 29.59 in /  1001.9 hPa Calm     95 % 0.00 in /  0 mm 23 W/m2
08:28 49.6 °F /  9.8 °C 48.5 °F /  9.2 °C 29.59 in /  1001.9 hPa Calm     96 % 0.00 in /  0 mm 19 W/m2
08:33 49.6 °F /  9.8 °C 48.5 °F /  9.2 °C 29.58 in /  1001.6 hPa Calm     96 % 0.00 in /  0 mm 18 W/m2
08:38 49.6 °F /  9.8 °C 48.5 °F /  9.2 °C 29.59 in /  1001.9 hPa Calm     96 % 0.00 in /  0 mm 21 W/m2
08:43 49.8 °F /  9.9 °C 48.7 °F /  9.3 °C 29.59 in /  1001.9 hPa Calm     96 % 0.00 in /  0 mm 25 W/m2
08:48 49.6 °F /  9.8 °C 48.5 °F /  9.2 °C 29.59 in /  1001.9 hPa Calm     96 % 0.00 in /  0 mm 26 W/m2
08:53 49.6 °F /  9.8 °C 48.3 °F /  9.1 °C 29.58 in /  1001.6 hPa NW 1.0 mph /  1.6 km/h 4.0 mph /  6.4 km/h 95 % 0.01 in /  0.25 mm 33 W/m2
08:58 49.6 °F /  9.8 °C 48.5 °F /  9.2 °C 29.58 in /  1001.6 hPa Calm   1.0 mph /  1.6 km/h 96 % 0.01 in /  0.25 mm 37 W/m2
09:03 49.6 °F /  9.8 °C 48.5 °F /  9.2 °C 29.58 in /  1001.6 hPa Calm   1.0 mph /  1.6 km/h 96 % 0.01 in /  0.25 mm 37 W/m2
09:08 49.6 °F /  9.8 °C 48.5 °F /  9.2 °C 29.58 in /  1001.6 hPa Calm   2.0 mph /  3.2 km/h 96 % 0.01 in /  0.25 mm 26 W/m2
09:13 49.6 °F /  9.8 °C 48.5 °F /  9.2 °C 29.58 in /  1001.6 hPa WNW 4.0 mph /  6.4 km/h 6.0 mph /  9.7 km/h 96 % 0.01 in /  0.25 mm 26 W/m2
09:18 49.6 °F /  9.8 °C 48.3 °F /  9.1 °C 29.58 in /  1001.6 hPa WNW 4.0 mph /  6.4 km/h 5.0 mph /  8 km/h 95 % 0.01 in /  0.25 mm 32 W/m2
09:23 49.5 °F /  9.7 °C 48.1 °F /  8.9 °C 29.58 in /  1001.6 hPa WNW 3.0 mph /  4.8 km/h 6.0 mph /  9.7 km/h 95 % 0.01 in /  0.25 mm 40 W/m2
09:28 49.5 °F /  9.7 °C 48.1 °F /  8.9 °C 29.58 in /  1001.6 hPa WNW 5.0 mph /  8 km/h 7.0 mph /  11.3 km/h 95 % 0.01 in /  0.25 mm 44 W/m2
09:33 49.3 °F /  9.6 °C 47.9 °F /  8.8 °C 29.58 in /  1001.6 hPa WNW 5.0 mph /  8 km/h 7.0 mph /  11.3 km/h 95 % 0.01 in /  0.25 mm 37 W/m2
09:38 49.3 °F /  9.6 °C 47.9 °F /  8.8 °C 29.58 in /  1001.6 hPa WNW 7.0 mph /  11.3 km/h 10.0 mph /  16.1 km/h 95 % 0.01 in /  0.25 mm 30 W/m2
09:43 49.3 °F /  9.6 °C 47.9 °F /  8.8 °C 29.58 in /  1001.6 hPa NW 5.0 mph /  8 km/h 8.0 mph /  12.9 km/h 95 % 0.01 in /  0.25 mm 28 W/m2
09:48 49.3 °F /  9.6 °C 47.9 °F /  8.8 °C 29.58 in /  1001.6 hPa NW 5.0 mph /  8 km/h 7.0 mph /  11.3 km/h 95 % 0.00 in /  0 mm 33 W/m2
09:53 49.3 °F /  9.6 °C 47.9 °F /  8.8 °C 29.58 in /  1001.6 hPa NW 4.0 mph /  6.4 km/h 6.0 mph /  9.7 km/h 95 % 0.00 in /  0 mm 35 W/m2
09:58 49.3 °F /  9.6 °C 47.9 °F /  8.8 °C 29.58 in /  1001.6 hPa WNW 6.0 mph /  9.7 km/h 10.0 mph /  16.1 km/h 95 % 0.00 in /  0 mm 51 W/m2
10:03 49.3 °F /  9.6 °C 47.9 °F /  8.8 °C 29.58 in /  1001.6 hPa WNW 5.0 mph /  8 km/h 8.0 mph /  12.9 km/h 95 % 0.00 in /  0 mm 62 W/m2
10:08 49.5 °F /  9.7 °C 48.1 °F /  8.9 °C 29.58 in /  1001.6 hPa WNW 8.0 mph /  12.9 km/h 12.0 mph /  19.3 km/h 95 % 0.00 in /  0 mm 60 W/m2
10:13 49.5 °F /  9.7 °C 47.8 °F /  8.8 °C 29.58 in /  1001.6 hPa WNW 8.0 mph /  12.9 km/h 14.0 mph /  22.5 km/h 94 % 0.00 in /  0 mm 74 W/m2
10:18 49.5 °F /  9.7 °C 47.8 °F /  8.8 °C 29.58 in /  1001.6 hPa WNW 7.0 mph /  11.3 km/h 11.0 mph /  17.7 km/h 94 % 0.00 in /  0 mm 102 W/m2
10:23 49.6 °F /  9.8 °C 48.0 °F /  8.9 °C 29.58 in /  1001.6 hPa WNW 5.0 mph /  8 km/h 9.0 mph /  14.5 km/h 94 % 0.00 in /  0 mm 109 W/m2
10:28 49.6 °F /  9.8 °C 48.0 °F /  8.9 °C 29.58 in /  1001.6 hPa WNW 6.0 mph /  9.7 km/h 10.0 mph /  16.1 km/h 94 % 0.00 in /  0 mm 111 W/m2
10:33 49.8 °F /  9.9 °C 47.9 °F /  8.8 °C 29.58 in /  1001.6 hPa NW 7.0 mph /  11.3 km/h 14.0 mph /  22.5 km/h 93 % 0.00 in /  0 mm 114 W/m2
10:38 50.0 °F /  10 °C 48.1 °F /  8.9 °C 29.58 in /  1001.6 hPa WNW 7.0 mph /  11.3 km/h 11.0 mph /  17.7 km/h 93 % 0.00 in /  0 mm 120 W/m2
10:43 50.0 °F /  10 °C 48.1 °F /  8.9 °C 29.58 in /  1001.6 hPa NW 7.0 mph /  11.3 km/h 13.0 mph /  20.9 km/h 93 % 0.00 in /  0 mm 130 W/m2
10:48 50.2 °F /  10.1 °C 47.9 °F /  8.8 °C 29.58 in /  1001.6 hPa WNW 7.0 mph /  11.3 km/h 11.0 mph /  17.7 km/h 92 % 0.00 in /  0 mm 128 W/m2
10:53 50.2 °F /  10.1 °C 47.9 °F /  8.8 °C 29.58 in /  1001.6 hPa WNW 7.0 mph /  11.3 km/h 12.0 mph /  19.3 km/h 92 % 0.00 in /  0 mm 130 W/m2
10:58 50.2 °F /  10.1 °C 47.9 °F /  8.8 °C 29.58 in /  1001.6 hPa WNW 7.0 mph /  11.3 km/h 10.0 mph /  16.1 km/h 92 % 0.00 in /  0 mm 134 W/m2
11:03 50.4 °F /  10.2 °C 47.8 °F /  8.8 °C 29.58 in /  1001.6 hPa WNW 9.0 mph /  14.5 km/h 14.0 mph /  22.5 km/h 91 % 0.00 in /  0 mm 141 W/m2
11:08 50.4 °F /  10.2 °C 47.8 °F /  8.8 °C 29.58 in /  1001.6 hPa WNW 8.0 mph /  12.9 km/h 11.0 mph /  17.7 km/h 91 % 0.00 in /  0 mm 151 W/m2
11:13 50.4 °F /  10.2 °C 47.8 °F /  8.8 °C 29.58 in /  1001.6 hPa WNW 7.0 mph /  11.3 km/h 12.0 mph /  19.3 km/h 91 % 0.00 in /  0 mm 162 W/m2
11:18 50.5 °F /  10.3 °C 48.0 °F /  8.9 °C 29.58 in /  1001.6 hPa WNW 10.0 mph /  16.1 km/h 15.0 mph /  24.1 km/h 91 % 0.00 in /  0 mm 148 W/m2
11:23 50.5 °F /  10.3 °C 47.7 °F /  8.7 °C 29.58 in /  1001.6 hPa WNW 10.0 mph /  16.1 km/h 18.0 mph /  29 km/h 90 % 0.00 in /  0 mm 120 W/m2
11:28 50.7 °F /  10.4 °C 47.9 °F /  8.8 °C 29.58 in /  1001.6 hPa WNW 9.0 mph /  14.5 km/h 15.0 mph /  24.1 km/h 90 % 0.00 in /  0 mm 171 W/m2
11:33 50.7 °F /  10.4 °C 47.9 °F /  8.8 °C 29.58 in /  1001.6 hPa WNW 8.0 mph /  12.9 km/h 13.0 mph /  20.9 km/h 90 % 0.00 in /  0 mm 144 W/m2
11:38 50.7 °F /  10.4 °C 47.6 °F /  8.7 °C 29.58 in /  1001.6 hPa WNW 10.0 mph /  16.1 km/h 14.0 mph /  22.5 km/h 89 % 0.00 in /  0 mm 114 W/m2
11:43 50.7 °F /  10.4 °C 47.3 °F /  8.5 °C 29.58 in /  1001.6 hPa WNW 8.0 mph /  12.9 km/h 21.0 mph /  33.8 km/h 88 % 0.00 in /  0 mm 118 W/m2
11:48 50.5 °F /  10.3 °C 47.1 °F /  8.4 °C 29.58 in /  1001.6 hPa WNW 9.0 mph /  14.5 km/h 15.0 mph /  24.1 km/h 88 % 0.00 in /  0 mm 120 W/m2
11:53 50.7 °F /  10.4 °C 47.3 °F /  8.5 °C 29.58 in /  1001.6 hPa WNW 10.0 mph /  16.1 km/h 18.0 mph /  29 km/h 88 % 0.00 in /  0 mm 265 W/m2
11:58 50.9 °F /  10.5 °C 47.5 °F /  8.6 °C 29.58 in /  1001.6 hPa WNW 11.0 mph /  17.7 km/h 21.0 mph /  33.8 km/h 88 % 0.00 in /  0 mm 301 W/m2
12:03 51.3 °F /  10.7 °C 47.2 °F /  8.4 °C 29.58 in /  1001.6 hPa WNW 11.0 mph /  17.7 km/h 16.0 mph /  25.7 km/h 86 % 0.00 in /  0 mm 216 W/m2
12:08 51.4 °F /  10.8 °C 47.4 °F /  8.6 °C 29.58 in /  1001.6 hPa WNW 8.0 mph /  12.9 km/h 12.0 mph /  19.3 km/h 86 % 0.00 in /  0 mm 229 W/m2
12:13 51.6 °F /  10.9 °C 47.3 °F /  8.5 °C 29.58 in /  1001.6 hPa WNW 10.0 mph /  16.1 km/h 16.0 mph /  25.7 km/h 85 % 0.00 in /  0 mm 209 W/m2
12:18 51.6 °F /  10.9 °C 47.3 °F /  8.5 °C 29.58 in /  1001.6 hPa NW 8.0 mph /  12.9 km/h 15.0 mph /  24.1 km/h 85 % 0.00 in /  0 mm 221 W/m2
12:23 51.6 °F /  10.9 °C 46.9 °F /  8.3 °C 29.58 in /  1001.6 hPa NW 10.0 mph /  16.1 km/h 19.0 mph /  30.6 km/h 84 % 0.00 in /  0 mm 253 W/m2
12:28 51.6 °F /  10.9 °C 46.9 °F /  8.3 °C 29.58 in /  1001.6 hPa WNW 10.0 mph /  16.1 km/h 18.0 mph /  29 km/h 84 % 0.00 in /  0 mm 185 W/m2
12:33 51.4 °F /  10.8 °C 46.4 °F /  8 °C 29.58 in /  1001.6 hPa WNW 11.0 mph /  17.7 km/h 19.0 mph /  30.6 km/h 83 % 0.00 in /  0 mm 195 W/m2
12:38 51.4 °F /  10.8 °C 46.8 °F /  8.2 °C 29.58 in /  1001.6 hPa WNW 5.0 mph /  8 km/h 9.0 mph /  14.5 km/h 84 % 0.00 in /  0 mm 190 W/m2
12:43 51.6 °F /  10.9 °C 46.6 °F /  8.1 °C 29.58 in /  1001.6 hPa WNW 11.0 mph /  17.7 km/h 18.0 mph /  29 km/h 83 % 0.00 in /  0 mm 200 W/m2
12:48 51.6 °F /  10.9 °C 46.3 °F /  7.9 °C 29.59 in /  1001.9 hPa WNW 12.0 mph /  19.3 km/h 19.0 mph /  30.6 km/h 82 % 0.00 in /  0 mm 221 W/m2
12:53 51.6 °F /  10.9 °C 46.3 °F /  7.9 °C 29.59 in /  1001.9 hPa WNW 11.0 mph /  17.7 km/h 19.0 mph /  30.6 km/h 82 % 0.00 in /  0 mm 223 W/m2
12:58 51.8 °F /  11 °C 46.2 °F /  7.9 °C 29.59 in /  1001.9 hPa WNW 11.0 mph /  17.7 km/h 18.0 mph /  29 km/h 81 % 0.00 in /  0 mm 244 W/m2
13:03 52.0 °F /  11.1 °C 46.0 °F /  7.8 °C 29.59 in /  1001.9 hPa NW 10.0 mph /  16.1 km/h 15.0 mph /  24.1 km/h 80 % 0.00 in /  0 mm 174 W/m2
13:08 52.0 °F /  11.1 °C 46.0 °F /  7.8 °C 29.59 in /  1001.9 hPa NW 10.0 mph /  16.1 km/h 15.0 mph /  24.1 km/h 80 % 0.00 in /  0 mm 148 W/m2
13:13 51.8 °F /  11 °C 45.5 °F /  7.5 °C 29.59 in /  1001.9 hPa NW 9.0 mph /  14.5 km/h 15.0 mph /  24.1 km/h 79 % 0.00 in /  0 mm 120 W/m2
13:18 51.6 °F /  10.9 °C 45.0 °F /  7.2 °C 29.58 in /  1001.6 hPa NW 9.0 mph /  14.5 km/h 13.0 mph /  20.9 km/h 78 % 0.00 in /  0 mm 100 W/m2
13:23 51.3 °F /  10.7 °C 44.3 °F /  6.8 °C 29.58 in /  1001.6 hPa NW 10.0 mph /  16.1 km/h 16.0 mph /  25.7 km/h 77 % 0.00 in /  0 mm 118 W/m2
13:28 51.1 °F /  10.6 °C 44.5 °F /  6.9 °C 29.58 in /  1001.6 hPa NW 10.0 mph /  16.1 km/h 16.0 mph /  25.7 km/h 78 % 0.00 in /  0 mm 267 W/m2
13:33 51.3 °F /  10.7 °C 45.3 °F /  7.4 °C 29.58 in /  1001.6 hPa WNW 8.0 mph /  12.9 km/h 13.0 mph /  20.9 km/h 80 % 0.00 in /  0 mm 121 W/m2
13:38 51.3 °F /  10.7 °C 45.3 °F /  7.4 °C 29.59 in /  1001.9 hPa WNW 10.0 mph /  16.1 km/h 18.0 mph /  29 km/h 80 % 0.00 in /  0 mm 118 W/m2
13:43 51.4 °F /  10.8 °C 45.1 °F /  7.3 °C 29.59 in /  1001.9 hPa WNW 11.0 mph /  17.7 km/h 16.0 mph /  25.7 km/h 79 % 0.00 in /  0 mm 364 W/m2
13:48 51.6 °F /  10.9 °C 45.3 °F /  7.4 °C 29.59 in /  1001.9 hPa WNW 10.0 mph /  16.1 km/h 16.0 mph /  25.7 km/h 79 % 0.00 in /  0 mm 360 W/m2
13:53 52.2 °F /  11.2 °C 45.8 °F /  7.7 °C 29.59 in /  1001.9 hPa WNW 9.0 mph /  14.5 km/h 13.0 mph /  20.9 km/h 79 % 0.00 in /  0 mm 339 W/m2
13:58 52.7 °F /  11.5 °C 46.0 °F /  7.8 °C 29.59 in /  1001.9 hPa WNW 9.0 mph /  14.5 km/h 16.0 mph /  25.7 km/h 78 % 0.00 in /  0 mm 343 W/m2
14:03 53.1 °F /  11.7 °C 46.0 °F /  7.8 °C 29.59 in /  1001.9 hPa WNW 9.0 mph /  14.5 km/h 15.0 mph /  24.1 km/h 77 % 0.00 in /  0 mm 279 W/m2
14:08 53.2 °F /  11.8 °C 44.8 °F /  7.1 °C 29.59 in /  1001.9 hPa NW 10.0 mph /  16.1 km/h 18.0 mph /  29 km/h 73 % 0.00 in /  0 mm 325 W/m2
14:14 53.2 °F /  11.8 °C 43.7 °F /  6.5 °C 29.60 in /  1002.3 hPa NW 11.0 mph /  17.7 km/h 19.0 mph /  30.6 km/h 70 % 0.00 in /  0 mm 267 W/m2
14:19 53.1 °F /  11.7 °C 42.8 °F /  6 °C 29.60 in /  1002.3 hPa WNW 13.0 mph /  20.9 km/h 23.0 mph /  37 km/h 68 % 0.00 in /  0 mm 265 W/m2
14:24 52.9 °F /  11.6 °C 43.0 °F /  6.1 °C 29.60 in /  1002.3 hPa NW 10.0 mph /  16.1 km/h 18.0 mph /  29 km/h 69 % 0.00 in /  0 mm 236 W/m2
14:29 52.3 °F /  11.3 °C 42.5 °F /  5.8 °C 29.60 in /  1002.3 hPa WNW 11.0 mph /  17.7 km/h 18.0 mph /  29 km/h 69 % 0.00 in /  0 mm 213 W/m2
14:34 52.2 °F /  11.2 °C 42.7 °F /  5.9 °C 29.61 in /  1002.6 hPa WNW 9.0 mph /  14.5 km/h 16.0 mph /  25.7 km/h 70 % 0.00 in /  0 mm 204 W/m2
14:39 52.2 °F /  11.2 °C 42.7 °F /  5.9 °C 29.60 in /  1002.3 hPa WNW 9.0 mph /  14.5 km/h 14.0 mph /  22.5 km/h 70 % 0.00 in /  0 mm 193 W/m2
14:44 52.2 °F /  11.2 °C 42.3 °F /  5.7 °C 29.61 in /  1002.6 hPa WNW 10.0 mph /  16.1 km/h 14.0 mph /  22.5 km/h 69 % 0.00 in /  0 mm 185 W/m2
14:49 52.2 °F /  11.2 °C 42.3 °F /  5.7 °C 29.60 in /  1002.3 hPa West 11.0 mph /  17.7 km/h 18.0 mph /  29 km/h 69 % 0.00 in /  0 mm 174 W/m2
14:54 51.8 °F /  11 °C 42.3 °F /  5.7 °C 29.61 in /  1002.6 hPa WNW 12.0 mph /  19.3 km/h 19.0 mph /  30.6 km/h 70 % 0.00 in /  0 mm 162 W/m2
14:59 51.4 °F /  10.8 °C 42.3 °F /  5.7 °C 29.61 in /  1002.6 hPa WNW 12.0 mph /  19.3 km/h 18.0 mph /  29 km/h 71 % 0.00 in /  0 mm 155 W/m2
15:04 51.1 °F /  10.6 °C 42.7 °F /  5.9 °C 29.61 in /  1002.6 hPa WNW 9.0 mph /  14.5 km/h 15.0 mph /  24.1 km/h 73 % 0.00 in /  0 mm 144 W/m2
15:09 50.9 °F /  10.5 °C 42.9 °F /  6.1 °C 29.61 in /  1002.6 hPa WNW 9.0 mph /  14.5 km/h 14.0 mph /  22.5 km/h 74 % 0.00 in /  0 mm 83 W/m2
15:14 50.7 °F /  10.4 °C 43.1 °F /  6.2 °C 29.61 in /  1002.6 hPa WNW 8.0 mph /  12.9 km/h 14.0 mph /  22.5 km/h 75 % 0.00 in /  0 mm 40 W/m2
15:19 50.5 °F /  10.3 °C 42.9 °F /  6.1 °C 29.61 in /  1002.6 hPa West 8.0 mph /  12.9 km/h 12.0 mph /  19.3 km/h 75 % 0.00 in /  0 mm 40 W/m2
15:24 50.2 °F /  10.1 °C 42.6 °F /  5.9 °C 29.61 in /  1002.6 hPa West 8.0 mph /  12.9 km/h 11.0 mph /  17.7 km/h 75 % 0.00 in /  0 mm 26 W/m2
15:29 49.8 °F /  9.9 °C 42.2 °F /  5.7 °C 29.62 in /  1002.9 hPa WNW 10.0 mph /  16.1 km/h 14.0 mph /  22.5 km/h 75 % 0.00 in /  0 mm 28 W/m2
15:34 49.6 °F /  9.8 °C 42.0 °F /  5.6 °C 29.62 in /  1002.9 hPa WNW 6.0 mph /  9.7 km/h 9.0 mph /  14.5 km/h 75 % 0.00 in /  0 mm 26 W/m2
15:39 49.5 °F /  9.7 °C 41.9 °F /  5.5 °C 29.62 in /  1002.9 hPa West 7.0 mph /  11.3 km/h 12.0 mph /  19.3 km/h 75 % 0.00 in /  0 mm 35 W/m2
15:44 49.3 °F /  9.6 °C 41.7 °F /  5.4 °C 29.63 in /  1003.3 hPa West 8.0 mph /  12.9 km/h 14.0 mph /  22.5 km/h 75 % 0.00 in /  0 mm 21 W/m2
15:49 49.1 °F /  9.5 °C 41.5 °F /  5.3 °C 29.62 in /  1002.9 hPa WNW 9.0 mph /  14.5 km/h 13.0 mph /  20.9 km/h 75 % 0.00 in /  0 mm 16 W/m2
15:54 48.7 °F /  9.3 °C 41.5 °F /  5.3 °C 29.62 in /  1002.9 hPa WNW 8.0 mph /  12.9 km/h 12.0 mph /  19.3 km/h 76 % 0.00 in /  0 mm 14 W/m2
15:59 48.6 °F /  9.2 °C 41.3 °F /  5.2 °C 29.62 in /  1002.9 hPa WNW 5.0 mph /  8 km/h 10.0 mph /  16.1 km/h 76 % 0.00 in /  0 mm 14 W/m2
16:04 48.2 °F /  9 °C 41.0 °F /  5 °C 29.63 in /  1003.3 hPa WNW 6.0 mph /  9.7 km/h 11.0 mph /  17.7 km/h 76 % 0.00 in /  0 mm 11 W/m2
16:09 47.8 °F /  8.8 °C 41.0 °F /  5 °C 29.62 in /  1002.9 hPa WNW 6.0 mph /  9.7 km/h 11.0 mph /  17.7 km/h 77 % 0.00 in /  0 mm 9 W/m2
16:14 47.7 °F /  8.7 °C 40.8 °F /  4.9 °C 29.62 in /  1002.9 hPa WNW 7.0 mph /  11.3 km/h 12.0 mph /  19.3 km/h 77 % 0.00 in /  0 mm 7 W/m2
16:19 47.5 °F /  8.6 °C 41.0 °F /  5 °C 29.62 in /  1002.9 hPa WNW 7.0 mph /  11.3 km/h 10.0 mph /  16.1 km/h 78 % 0.00 in /  0 mm 7 W/m2
16:24 47.1 °F /  8.4 °C 40.6 °F /  4.8 °C 29.63 in /  1003.3 hPa WNW 3.0 mph /  4.8 km/h 7.0 mph /  11.3 km/h 78 % 0.00 in /  0 mm 5 W/m2
16:29 46.9 °F /  8.3 °C 40.4 °F /  4.7 °C 29.63 in /  1003.3 hPa WNW 4.0 mph /  6.4 km/h 8.0 mph /  12.9 km/h 78 % 0.00 in /  0 mm 0 W/m2
16:34 46.8 °F /  8.2 °C 40.6 °F /  4.8 °C 29.63 in /  1003.3 hPa WNW 6.0 mph /  9.7 km/h 11.0 mph /  17.7 km/h 79 % 0.00 in /  0 mm 0 W/m2
16:39 46.4 °F /  8 °C 40.2 °F /  4.6 °C 29.63 in /  1003.3 hPa WNW 7.0 mph /  11.3 km/h 10.0 mph /  16.1 km/h 79 % 0.00 in /  0 mm 0 W/m2
16:44 46.2 °F /  7.9 °C 40.1 °F /  4.5 °C 29.63 in /  1003.3 hPa WNW 4.0 mph /  6.4 km/h 7.0 mph /  11.3 km/h 79 % 0.00 in /  0 mm 0 W/m2
16:49 46.0 °F /  7.8 °C 39.9 °F /  4.4 °C 29.64 in /  1003.6 hPa WNW 2.0 mph /  3.2 km/h 5.0 mph /  8 km/h 79 % 0.00 in /  0 mm 0 W/m2
16:54 45.9 °F /  7.7 °C 39.7 °F /  4.3 °C 29.64 in /  1003.6 hPa West 1.0 mph /  1.6 km/h 5.0 mph /  8 km/h 79 % 0.00 in /  0 mm 0 W/m2
17:00 45.7 °F /  7.6 °C 39.5 °F /  4.2 °C 29.64 in /  1003.6 hPa WNW 2.0 mph /  3.2 km/h 5.0 mph /  8 km/h 79 % 0.00 in /  0 mm 0 W/m2
17:05 45.5 °F /  7.5 °C 39.7 °F /  4.3 °C 29.64 in /  1003.6 hPa West 2.0 mph /  3.2 km/h 6.0 mph /  9.7 km/h 80 % 0.00 in /  0 mm 0 W/m2
17:10 45.3 °F /  7.4 °C 39.5 °F /  4.2 °C 29.64 in /  1003.6 hPa WNW 5.0 mph /  8 km/h 9.0 mph /  14.5 km/h 80 % 0.00 in /  0 mm 0 W/m2
17:15 45.1 °F /  7.3 °C 39.3 °F /  4.1 °C 29.64 in /  1003.6 hPa Calm     80 % 0.00 in /  0 mm 0 W/m2
17:20 45.0 °F /  7.2 °C 39.2 °F /  4 °C 29.64 in /  1003.6 hPa Calm   2.0 mph /  3.2 km/h 80 % 0.00 in /  0 mm 0 W/m2
17:25 44.8 °F /  7.1 °C 39.3 °F /  4.1 °C 29.64 in /  1003.6 hPa NW 1.0 mph /  1.6 km/h 2.0 mph /  3.2 km/h 81 % 0.00 in /  0 mm 0 W/m2
17:30 44.6 °F /  7 °C 39.1 °F /  3.9 °C 29.64 in /  1003.6 hPa WNW 4.0 mph /  6.4 km/h 7.0 mph /  11.3 km/h 81 % 0.00 in /  0 mm 0 W/m2
17:35 44.4 °F /  6.9 °C 39.0 °F /  3.9 °C 29.64 in /  1003.6 hPa WNW 4.0 mph /  6.4 km/h 8.0 mph /  12.9 km/h 81 % 0.00 in /  0 mm 0 W/m2
17:40 44.6 °F /  7 °C 39.1 °F /  3.9 °C 29.64 in /  1003.6 hPa WNW 4.0 mph /  6.4 km/h 9.0 mph /  14.5 km/h 81 % 0.00 in /  0 mm 0 W/m2
17:45 44.8 °F /  7.1 °C 39.3 °F /  4.1 °C 29.64 in /  1003.6 hPa WNW 6.0 mph /  9.7 km/h 10.0 mph /  16.1 km/h 81 % 0.00 in /  0 mm 0 W/m2
17:50 44.8 °F /  7.1 °C 39.3 °F /  4.1 °C 29.64 in /  1003.6 hPa West 3.0 mph /  4.8 km/h 9.0 mph /  14.5 km/h 81 % 0.00 in /  0 mm 0 W/m2
17:55 44.6 °F /  7 °C 39.1 °F /  3.9 °C 29.64 in /  1003.6 hPa WSW 1.0 mph /  1.6 km/h 4.0 mph /  6.4 km/h 81 % 0.00 in /  0 mm 0 W/m2
18:00 44.4 °F /  6.9 °C 39.0 °F /  3.9 °C 29.64 in /  1003.6 hPa West 2.0 mph /  3.2 km/h 7.0 mph /  11.3 km/h 81 % 0.00 in /  0 mm 0 W/m2
18:05 44.6 °F /  7 °C 39.1 °F /  3.9 °C 29.64 in /  1003.6 hPa West 6.0 mph /  9.7 km/h 12.0 mph /  19.3 km/h 81 % 0.00 in /  0 mm 0 W/m2
18:10 44.8 °F /  7.1 °C 39.3 °F /  4.1 °C 29.65 in /  1003.9 hPa West 7.0 mph /  11.3 km/h 13.0 mph /  20.9 km/h 81 % 0.00 in /  0 mm 0 W/m2
18:15 44.8 °F /  7.1 °C 39.0 °F /  3.9 °C 29.65 in /  1003.9 hPa West 7.0 mph /  11.3 km/h 9.0 mph /  14.5 km/h 80 % 0.00 in /  0 mm 0 W/m2
18:20 44.8 °F /  7.1 °C 38.7 °F /  3.7 °C 29.65 in /  1003.9 hPa West 8.0 mph /  12.9 km/h 12.0 mph /  19.3 km/h 79 % 0.00 in /  0 mm 0 W/m2
18:25 45.0 °F /  7.2 °C 39.2 °F /  4 °C 29.65 in /  1003.9 hPa WNW 8.0 mph /  12.9 km/h 11.0 mph /  17.7 km/h 80 % 0.00 in /  0 mm 0 W/m2
18:30 44.8 °F /  7.1 °C 39.0 °F /  3.9 °C 29.65 in /  1003.9 hPa WNW 6.0 mph /  9.7 km/h 9.0 mph /  14.5 km/h 80 % 0.00 in /  0 mm 0 W/m2
18:35 44.8 °F /  7.1 °C 39.3 °F /  4.1 °C 29.65 in /  1003.9 hPa WNW 4.0 mph /  6.4 km/h 6.0 mph /  9.7 km/h 81 % 0.00 in /  0 mm 0 W/m2
18:40 44.8 °F /  7.1 °C 39.3 °F /  4.1 °C 29.65 in /  1003.9 hPa WNW 3.0 mph /  4.8 km/h 6.0 mph /  9.7 km/h 81 % 0.00 in /  0 mm 0 W/m2
18:45 44.6 °F /  7 °C 39.4 °F /  4.1 °C 29.65 in /  1003.9 hPa WNW 5.0 mph /  8 km/h 11.0 mph /  17.7 km/h 82 % 0.00 in /  0 mm 0 W/m2
18:50 44.6 °F /  7 °C 39.4 °F /  4.1 °C 29.65 in /  1003.9 hPa WNW 5.0 mph /  8 km/h 8.0 mph /  12.9 km/h 82 % 0.00 in /  0 mm 0 W/m2
18:55 44.6 °F /  7 °C 39.4 °F /  4.1 °C 29.65 in /  1003.9 hPa WNW 1.0 mph /  1.6 km/h 4.0 mph /  6.4 km/h 82 % 0.00 in /  0 mm 0 W/m2
19:00 44.4 °F /  6.9 °C 39.6 °F /  4.2 °C 29.66 in /  1004.3 hPa Calm   1.0 mph /  1.6 km/h 83 % 0.00 in /  0 mm 0 W/m2
19:05 44.2 °F /  6.8 °C 39.4 °F /  4.1 °C 29.65 in /  1003.9 hPa West 2.0 mph /  3.2 km/h 6.0 mph /  9.7 km/h 83 % 0.00 in /  0 mm 0 W/m2
19:10 44.2 °F /  6.8 °C 39.7 °F /  4.3 °C 29.66 in /  1004.3 hPa WNW 6.0 mph /  9.7 km/h 10.0 mph /  16.1 km/h 84 % 0.00 in /  0 mm 0 W/m2
19:15 44.2 °F /  6.8 °C 40.0 °F /  4.4 °C 29.65 in /  1003.9 hPa West 5.0 mph /  8 km/h 8.0 mph /  12.9 km/h 85 % 0.00 in /  0 mm 0 W/m2
19:20 44.1 °F /  6.7 °C 39.8 °F /  4.3 °C 29.65 in /  1003.9 hPa West 3.0 mph /  4.8 km/h 8.0 mph /  12.9 km/h 85 % 0.00 in /  0 mm 0 W/m2
19:25 44.1 °F /  6.7 °C 39.8 °F /  4.3 °C 29.65 in /  1003.9 hPa West 4.0 mph /  6.4 km/h 6.0 mph /  9.7 km/h 85 % 0.00 in /  0 mm 0 W/m2
19:30 44.1 °F /  6.7 °C 39.8 °F /  4.3 °C 29.66 in /  1004.3 hPa WNW 3.0 mph /  4.8 km/h 6.0 mph /  9.7 km/h 85 % 0.00 in /  0 mm 0 W/m2
19:35 44.1 °F /  6.7 °C 40.1 °F /  4.5 °C 29.66 in /  1004.3 hPa West 8.0 mph /  12.9 km/h 15.0 mph /  24.1 km/h 86 % 0.00 in /  0 mm 0 W/m2
19:40 44.2 °F /  6.8 °C 40.3 °F /  4.6 °C 29.67 in /  1004.6 hPa West 12.0 mph /  19.3 km/h 21.0 mph /  33.8 km/h 86 % 0.00 in /  0 mm 0 W/m2
19:45 44.2 °F /  6.8 °C 40.0 °F /  4.4 °C 29.67 in /  1004.6 hPa WNW 10.0 mph /  16.1 km/h 16.0 mph /  25.7 km/h 85 % 0.00 in /  0 mm 0 W/m2
19:50 44.2 °F /  6.8 °C 40.0 °F /  4.4 °C 29.67 in /  1004.6 hPa WNW 8.0 mph /  12.9 km/h 14.0 mph /  22.5 km/h 85 % 0.00 in /  0 mm 0 W/m2
19:55 44.2 °F /  6.8 °C 40.0 °F /  4.4 °C 29.67 in /  1004.6 hPa WNW 7.0 mph /  11.3 km/h 11.0 mph /  17.7 km/h 85 % 0.00 in /  0 mm 0 W/m2
20:00 44.1 °F /  6.7 °C 39.8 °F /  4.3 °C 29.67 in /  1004.6 hPa WNW 6.0 mph /  9.7 km/h 12.0 mph /  19.3 km/h 85 % 0.00 in /  0 mm 0 W/m2
20:05 44.1 °F /  6.7 °C 39.8 °F /  4.3 °C 29.67 in /  1004.6 hPa WNW 6.0 mph /  9.7 km/h 8.0 mph /  12.9 km/h 85 % 0.00 in /  0 mm 0 W/m2
20:10 43.9 °F /  6.6 °C 39.7 °F /  4.3 °C 29.67 in /  1004.6 hPa WNW 5.0 mph /  8 km/h 9.0 mph /  14.5 km/h 85 % 0.00 in /  0 mm 0 W/m2
20:15 43.9 °F /  6.6 °C 40.0 °F /  4.4 °C 29.67 in /  1004.6 hPa WNW 4.0 mph /  6.4 km/h 8.0 mph /  12.9 km/h 86 % 0.00 in /  0 mm 0 W/m2
20:20 43.7 °F /  6.5 °C 39.8 °F /  4.3 °C 29.67 in /  1004.6 hPa Calm   2.0 mph /  3.2 km/h 86 % 0.00 in /  0 mm 0 W/m2
20:25 43.5 °F /  6.4 °C 39.6 °F /  4.2 °C 29.67 in /  1004.6 hPa West 3.0 mph /  4.8 km/h 5.0 mph /  8 km/h 86 % 0.00 in /  0 mm 0 W/m2
20:30 43.3 °F /  6.3 °C 39.4 °F /  4.1 °C 29.67 in /  1004.6 hPa West 1.0 mph /  1.6 km/h 4.0 mph /  6.4 km/h 86 % 0.00 in /  0 mm 0 W/m2
20:35 43.2 °F /  6.2 °C 39.3 °F /  4.1 °C 29.67 in /  1004.6 hPa WSW 2.0 mph /  3.2 km/h 6.0 mph /  9.7 km/h 86 % 0.00 in /  0 mm 0 W/m2
20:40 43.2 °F /  6.2 °C 39.6 °F /  4.2 °C 29.68 in /  1005 hPa West 4.0 mph /  6.4 km/h 7.0 mph /  11.3 km/h 87 % 0.00 in /  0 mm 0 W/m2
20:45 43.0 °F /  6.1 °C 39.4 °F /  4.1 °C 29.67 in /  1004.6 hPa West 4.0 mph /  6.4 km/h 8.0 mph /  12.9 km/h 87 % 0.00 in /  0 mm 0 W/m2
20:50 43.0 °F /  6.1 °C 39.4 °F /  4.1 °C 29.67 in /  1004.6 hPa West 4.0 mph /  6.4 km/h 7.0 mph /  11.3 km/h 87 % 0.00 in /  0 mm 0 W/m2
20:55 42.8 °F /  6 °C 39.2 °F /  4 °C 29.67 in /  1004.6 hPa West 5.0 mph /  8 km/h 8.0 mph /  12.9 km/h 87 % 0.00 in /  0 mm 0 W/m2
21:00 42.6 °F /  5.9 °C 39.0 °F /  3.9 °C 29.67 in /  1004.6 hPa West 5.0 mph /  8 km/h 8.0 mph /  12.9 km/h 87 % 0.00 in /  0 mm 0 W/m2
21:06 42.4 °F /  5.8 °C 38.8 °F /  3.8 °C 29.67 in /  1004.6 hPa West 8.0 mph /  12.9 km/h 13.0 mph /  20.9 km/h 87 % 0.00 in /  0 mm 0 W/m2
21:10 42.4 °F /  5.8 °C 38.8 °F /  3.8 °C 29.67 in /  1004.6 hPa West 4.0 mph /  6.4 km/h 10.0 mph /  16.1 km/h 87 % 0.00 in /  0 mm 0 W/m2
21:16 42.3 °F /  5.7 °C 38.7 °F /  3.7 °C 29.67 in /  1004.6 hPa West 3.0 mph /  4.8 km/h 8.0 mph /  12.9 km/h 87 % 0.00 in /  0 mm 0 W/m2
21:21 42.3 °F /  5.7 °C 38.7 °F /  3.7 °C 29.67 in /  1004.6 hPa West 5.0 mph /  8 km/h 10.0 mph /  16.1 km/h 87 % 0.00 in /  0 mm 0 W/m2
21:26 42.3 °F /  5.7 °C 38.7 °F /  3.7 °C 29.67 in /  1004.6 hPa West 2.0 mph /  3.2 km/h 7.0 mph /  11.3 km/h 87 % 0.00 in /  0 mm 0 W/m2
21:31 42.1 °F /  5.6 °C 38.5 °F /  3.6 °C 29.68 in /  1005 hPa West 4.0 mph /  6.4 km/h 7.0 mph /  11.3 km/h 87 % 0.00 in /  0 mm 0 W/m2
21:36 42.1 °F /  5.6 °C 38.5 °F /  3.6 °C 29.67 in /  1004.6 hPa West 2.0 mph /  3.2 km/h 6.0 mph /  9.7 km/h 87 % 0.00 in /  0 mm 0 W/m2
21:41 42.1 °F /  5.6 °C 38.5 °F /  3.6 °C 29.67 in /  1004.6 hPa WNW 1.0 mph /  1.6 km/h 5.0 mph /  8 km/h 87 % 0.00 in /  0 mm 0 W/m2
21:46 41.9 °F /  5.5 °C 38.3 °F /  3.5 °C 29.67 in /  1004.6 hPa Calm   2.0 mph /  3.2 km/h 87 % 0.00 in /  0 mm 0 W/m2
21:51 41.9 °F /  5.5 °C 38.3 °F /  3.5 °C 29.67 in /  1004.6 hPa West 4.0 mph /  6.4 km/h 10.0 mph /  16.1 km/h 87 % 0.00 in /  0 mm 0 W/m2
21:56 41.9 °F /  5.5 °C 38.3 °F /  3.5 °C 29.67 in /  1004.6 hPa West 5.0 mph /  8 km/h 8.0 mph /  12.9 km/h 87 % 0.00 in /  0 mm 0 W/m2
22:01 41.9 °F /  5.5 °C 38.3 °F /  3.5 °C 29.67 in /  1004.6 hPa West 5.0 mph /  8 km/h 12.0 mph /  19.3 km/h 87 % 0.00 in /  0 mm 0 W/m2
22:06 42.1 °F /  5.6 °C 38.5 °F /  3.6 °C 29.67 in /  1004.6 hPa West 6.0 mph /  9.7 km/h 11.0 mph /  17.7 km/h 87 % 0.00 in /  0 mm 0 W/m2
22:11 42.1 °F /  5.6 °C 38.5 °F /  3.6 °C 29.67 in /  1004.6 hPa West 6.0 mph /  9.7 km/h 9.0 mph /  14.5 km/h 87 % 0.00 in /  0 mm 0 W/m2
22:16 42.3 °F /  5.7 °C 38.7 °F /  3.7 °C 29.68 in /  1005 hPa West 4.0 mph /  6.4 km/h 7.0 mph /  11.3 km/h 87 % 0.00 in /  0 mm 0 W/m2
22:21 42.3 °F /  5.7 °C 38.7 °F /  3.7 °C 29.67 in /  1004.6 hPa West 4.0 mph /  6.4 km/h 7.0 mph /  11.3 km/h 87 % 0.00 in /  0 mm 0 W/m2
22:26 42.4 °F /  5.8 °C 38.8 °F /  3.8 °C 29.68 in /  1005 hPa West 2.0 mph /  3.2 km/h 5.0 mph /  8 km/h 87 % 0.00 in /  0 mm 0 W/m2
22:28 42.4 °F /  5.8 °C 38.8 °F /  3.8 °C 29.68 in /  1005 hPa West 2.0 mph /  3.2 km/h 5.0 mph /  8 km/h 87 % 0.00 in /  0 mm 0 W/m2
22:33 42.4 °F /  5.8 °C 38.8 °F /  3.8 °C 29.68 in /  1005 hPa West 3.0 mph /  4.8 km/h 8.0 mph /  12.9 km/h 87 % 0.00 in /  0 mm 0 W/m2
22:38 42.4 °F /  5.8 °C 38.8 °F /  3.8 °C 29.69 in /  1005.3 hPa West 5.0 mph /  8 km/h 13.0 mph /  20.9 km/h 87 % 0.00 in /  0 mm 0 W/m2
22:43 42.6 °F /  5.9 °C 39.0 °F /  3.9 °C 29.69 in /  1005.3 hPa West 8.0 mph /  12.9 km/h 15.0 mph /  24.1 km/h 87 % 0.00 in /  0 mm 0 W/m2
22:48 42.6 °F /  5.9 °C 38.7 °F /  3.7 °C 29.69 in /  1005.3 hPa West 8.0 mph /  12.9 km/h 14.0 mph /  22.5 km/h 86 % 0.00 in /  0 mm 0 W/m2
22:53 42.6 °F /  5.9 °C 38.7 °F /  3.7 °C 29.69 in /  1005.3 hPa West 8.0 mph /  12.9 km/h 12.0 mph /  19.3 km/h 86 % 0.00 in /  0 mm 0 W/m2
22:58 42.4 °F /  5.8 °C 38.2 °F /  3.4 °C 29.69 in /  1005.3 hPa West 9.0 mph /  14.5 km/h 15.0 mph /  24.1 km/h 85 % 0.00 in /  0 mm 0 W/m2
23:03 42.4 °F /  5.8 °C 37.9 °F /  3.3 °C 29.70 in /  1005.6 hPa WNW 9.0 mph /  14.5 km/h 13.0 mph /  20.9 km/h 84 % 0.00 in /  0 mm 0 W/m2
23:08 42.4 °F /  5.8 °C 37.6 °F /  3.1 °C 29.70 in /  1005.6 hPa WNW 9.0 mph /  14.5 km/h 14.0 mph /  22.5 km/h 83 % 0.00 in /  0 mm 0 W/m2
23:13 42.6 °F /  5.9 °C 37.8 °F /  3.2 °C 29.70 in /  1005.6 hPa WNW 9.0 mph /  14.5 km/h 13.0 mph /  20.9 km/h 83 % 0.00 in /  0 mm 0 W/m2
23:18 42.4 °F /  5.8 °C 37.6 °F /  3.1 °C 29.70 in /  1005.6 hPa West 8.0 mph /  12.9 km/h 16.0 mph /  25.7 km/h 83 % 0.00 in /  0 mm 0 W/m2
23:23 42.4 °F /  5.8 °C 37.6 °F /  3.1 °C 29.70 in /  1005.6 hPa West 9.0 mph /  14.5 km/h 15.0 mph /  24.1 km/h 83 % 0.00 in /  0 mm 0 W/m2
23:28 42.3 °F /  5.7 °C 37.5 °F /  3.1 °C 29.70 in /  1005.6 hPa West 9.0 mph /  14.5 km/h 14.0 mph /  22.5 km/h 83 % 0.00 in /  0 mm 0 W/m2
23:33 42.1 °F /  5.6 °C 37.6 °F /  3.1 °C 29.70 in /  1005.6 hPa West 7.0 mph /  11.3 km/h 10.0 mph /  16.1 km/h 84 % 0.00 in /  0 mm 0 W/m2
23:38 41.9 °F /  5.5 °C 37.4 °F /  3 °C 29.70 in /  1005.6 hPa West 11.0 mph /  17.7 km/h 18.0 mph /  29 km/h 84 % 0.00 in /  0 mm 0 W/m2
23:43 41.7 °F /  5.4 °C 37.2 °F /  2.9 °C 29.69 in /  1005.3 hPa West 9.0 mph /  14.5 km/h 14.0 mph /  22.5 km/h 84 % 0.00 in /  0 mm 0 W/m2
23:48 41.5 °F /  5.3 °C 37.1 °F /  2.8 °C 29.69 in /  1005.3 hPa WNW 9.0 mph /  14.5 km/h 13.0 mph /  20.9 km/h 84 % 0.00 in /  0 mm 0 W/m2
23:53 41.4 °F /  5.2 °C 37.2 °F /  2.9 °C 29.69 in /  1005.3 hPa WNW 6.0 mph /  9.7 km/h 9.0 mph /  14.5 km/h 85 % 0.00 in /  0 mm 0 W/m2
23:58 41.2 °F /  5.1 °C 37.0 °F /  2.8 °C 29.69 in /  1005.3 hPa WNW 6.0 mph /  9.7 km/h 11.0 mph /  17.7 km/h 85 % 0.00 in /  0 mm 0 W/m2
Delerius-Weather
Compliments of Weather Underground - 2.25 mb

Data updates at regular intervals.